Spokane, WA

2:58 AM PST on December 18, 2014 (GMT -0800)
Deer Park | Change Station
CLOSE
Current Station
Airport
Location: Deer Park,
Elevation: 2205 ft
Nearby Weather Stations

Elev 2205 ft 47.97 °N, 117.42 °W | Updated 5 minutes ago

Overcast
Overcast
34 °F
Feels Like 34 °F
N
0
Wind Variable Wind from North

Today
High -- | Low -- °F
--% Chance of Precip.
Yesterday
High -- | Low -- °F
Precip. -- in
7:34 AM 3:59 PM
Waning Crescent, 15% visible
Pressure 30.03 in
Visibility 5.0 miles
Clouds Few 1000 ft
Scattered Clouds 1500 ft
Overcast 3500 ft
Dew Point 33 °F
Humidity 96%
Rainfall 0.00 in
Snow Depth Not available.
UV 0 out of 12
Pollen .10 out of 12
Air Quality Not available.
Flu Activity Not available.
METAR KDEW 181053Z AUTO 00000KT 5SM BR FEW010 SCT015 OVC035 01/01 A2998 RMK AO2 SLP167 T00110006

More Conditions Fewer Conditions

Pressure 30.03 in
Visibility 5.0 miles
Clouds Few 1000 ft
Scattered Clouds 1500 ft
Overcast 3500 ft
Dew Point 33 °F
Humidity 96%
Rainfall 0.00 in
Snow Depth Not available.
UV 0 out of 12
Pollen .10 out of 12
Air Quality Not available.
Flu Activity Not available.
METAR KDEW 181053Z AUTO 00000KT 5SM BR FEW010 SCT015 OVC035 01/01 A2998 RMK AO2 SLP167 T00110006

More Conditions Fewer Conditions

10-Day Weather Forecast

Almanac

Astronomy

Dec. 18, 2014 Rise Set
Actual Time
Civil Twilight
Nautical Twilight
Astronomical Twilight
Moon
Length of Visible Light
Length of Day
Tomorrow will be .
, % of the Moon is Illuminated

Today's Extremes

State Highs State Lows

Community

WunderPhotos

Upload Photos

1,778,917 photos uploaded!

WunderBlogs® & News

Nearby

Air Quality

  Air Quality AQ Index Pollutant
Not available.

Snow Depth

Station Depth Elevation

Earthquake Activity

City Distance Mag. Time & Date
Minimum magnitude displayed is 2.5.

Coastal Water Temperatures

Place Temperature

Nearby Weather Stations